Wrightstown, Wisconsin
Current Conditions -  °F | °C
As of 4:53 AM on Sunday 21 Dec 2014 (Local Time) from KGRB Reporting Station
Haze Haze  
Wind Chill: 25°   Ceiling: 3700
Heat Index: 30°   Visibility: 5mi
Dew Point: 27°   Wind: 5mph
Humidity: 88%   Direction: 170°S
Pressure: 30.15"   Gusts: NA
Location:  44.33°N, 88.16°W
Report Text: KGRB 211053Z AUTO 17004KT 5SM BR FEW020 OVC037 M01/M03 A3015 RMK AO2 SLP221 T10111028
Loading
Personal Weather Stations






























Interactive Weather Map New forecast layout! Learn more

10-Day Weather Forecast

Advertisements
Track Severe Weather on mobile